sensor_id;sensor_type;location;lat;lon;timestamp;temperature;humidity
4411;DHT22;2218;51.408;7.208;2023-03-23T00:02:00;19.40;41.30
4411;DHT22;2218;51.408;7.208;2023-03-23T00:04:27;19.40;41.30
4411;DHT22;2218;51.408;7.208;2023-03-23T00:06:55;19.40;41.30
4411;DHT22;2218;51.408;7.208;2023-03-23T00:09:23;19.40;41.40
4411;DHT22;2218;51.408;7.208;2023-03-23T00:11:51;19.40;41.50
4411;DHT22;2218;51.408;7.208;2023-03-23T00:14:23;19.40;41.50
4411;DHT22;2218;51.408;7.208;2023-03-23T00:16:50;19.40;41.50
4411;DHT22;2218;51.408;7.208;2023-03-23T00:19:17;19.40;41.50
4411;DHT22;2218;51.408;7.208;2023-03-23T00:21:45;19.40;41.60
4411;DHT22;2218;51.408;7.208;2023-03-23T00:24:14;19.40;41.60
4411;DHT22;2218;51.408;7.208;2023-03-23T00:26:45;19.40;41.70
4411;DHT22;2218;51.408;7.208;2023-03-23T00:29:15;19.40;41.70
4411;DHT22;2218;51.408;7.208;2023-03-23T00:31:45;19.40;41.70
4411;DHT22;2218;51.408;7.208;2023-03-23T00:34:13;19.40;41.70
4411;DHT22;2218;51.408;7.208;2023-03-23T00:36:45;19.40;41.80
4411;DHT22;2218;51.408;7.208;2023-03-23T00:39:12;19.40;41.90
4411;DHT22;2218;51.408;7.208;2023-03-23T00:41:42;19.40;41.90
4411;DHT22;2218;51.408;7.208;2023-03-23T00:44:10;19.40;41.90
4411;DHT22;2218;51.408;7.208;2023-03-23T00:46:42;19.40;41.90
4411;DHT22;2218;51.408;7.208;2023-03-23T00:49:11;19.40;41.90
4411;DHT22;2218;51.408;7.208;2023-03-23T00:51:39;19.40;42.00
4411;DHT22;2218;51.408;7.208;2023-03-23T00:54:08;19.40;42.00
4411;DHT22;2218;51.408;7.208;2023-03-23T00:56:35;19.40;42.00
4411;DHT22;2218;51.408;7.208;2023-03-23T00:59:05;19.30;41.90
4411;DHT22;2218;51.408;7.208;2023-03-23T01:01:33;19.40;42.60
4411;DHT22;2218;51.408;7.208;2023-03-23T01:04:02;19.40;42.10
4411;DHT22;2218;51.408;7.208;2023-03-23T01:06:31;19.30;42.00
4411;DHT22;2218;51.408;7.208;2023-03-23T01:09:02;19.30;42.00
4411;DHT22;2218;51.408;7.208;2023-03-23T01:11:29;19.30;42.10
4411;DHT22;2218;51.408;7.208;2023-03-23T01:13:57;19.40;42.10
4411;DHT22;2218;51.408;7.208;2023-03-23T01:16:26;19.30;42.00
4411;DHT22;2218;51.408;7.208;2023-03-23T01:18:54;19.40;42.20
4411;DHT22;2218;51.408;7.208;2023-03-23T01:21:22;19.30;42.10
4411;DHT22;2218;51.408;7.208;2023-03-23T01:23:50;19.30;42.10
4411;DHT22;2218;51.408;7.208;2023-03-23T01:26:19;19.30;42.20
4411;DHT22;2218;51.408;7.208;2023-03-23T01:28:48;19.30;42.20
4411;DHT22;2218;51.408;7.208;2023-03-23T01:31:17;19.30;42.20
4411;DHT22;2218;51.408;7.208;2023-03-23T01:33:47;19.30;42.30
4411;DHT22;2218;51.408;7.208;2023-03-23T01:36:18;19.30;42.30
4411;DHT22;2218;51.408;7.208;2023-03-23T01:38:48;19.30;42.30
4411;DHT22;2218;51.408;7.208;2023-03-23T01:41:17;19.30;42.30
4411;DHT22;2218;51.408;7.208;2023-03-23T01:43:56;19.30;42.30
4411;DHT22;2218;51.408;7.208;2023-03-23T01:46:28;19.30;42.30
4411;DHT22;2218;51.408;7.208;2023-03-23T01:49:00;19.30;42.30
4411;DHT22;2218;51.408;7.208;2023-03-23T01:51:34;19.30;42.40
4411;DHT22;2218;51.408;7.208;2023-03-23T01:54:06;19.30;42.40
4411;DHT22;2218;51.408;7.208;2023-03-23T01:56:39;19.30;42.40
4411;DHT22;2218;51.408;7.208;2023-03-23T01:59:11;19.30;42.40
4411;DHT22;2218;51.408;7.208;2023-03-23T02:01:44;19.30;42.50
4411;DHT22;2218;51.408;7.208;2023-03-23T02:04:14;19.30;42.40
4411;DHT22;2218;51.408;7.208;2023-03-23T02:06:43;19.30;42.50
4411;DHT22;2218;51.408;7.208;2023-03-23T02:09:16;19.30;42.50
4411;DHT22;2218;51.408;7.208;2023-03-23T02:11:46;19.30;42.50
4411;DHT22;2218;51.408;7.208;2023-03-23T02:14:16;19.30;42.50
4411;DHT22;2218;51.408;7.208;2023-03-23T02:16:50;19.30;42.60
4411;DHT22;2218;51.408;7.208;2023-03-23T02:19:41;19.30;42.60
4411;DHT22;2218;51.408;7.208;2023-03-23T02:22:48;19.30;42.60
4411;DHT22;2218;51.408;7.208;2023-03-23T02:25:47;19.30;42.60
4411;DHT22;2218;51.408;7.208;2023-03-23T02:28:53;19.30;42.60
4411;DHT22;2218;51.408;7.208;2023-03-23T02:31:48;19.30;42.70
4411;DHT22;2218;51.408;7.208;2023-03-23T02:34:40;19.30;42.70
4411;DHT22;2218;51.408;7.208;2023-03-23T02:37:13;19.30;42.70
4411;DHT22;2218;51.408;7.208;2023-03-23T02:39:47;19.30;42.80
4411;DHT22;2218;51.408;7.208;2023-03-23T02:42:23;19.30;42.80
4411;DHT22;2218;51.408;7.208;2023-03-23T02:44:53;19.30;42.80
4411;DHT22;2218;51.408;7.208;2023-03-23T02:47:25;19.20;42.70
4411;DHT22;2218;51.408;7.208;2023-03-23T02:49:58;19.30;42.80
4411;DHT22;2218;51.408;7.208;2023-03-23T02:52:28;19.30;42.80
4411;DHT22;2218;51.408;7.208;2023-03-23T02:54:57;19.30;42.80
4411;DHT22;2218;51.408;7.208;2023-03-23T02:57:27;19.30;42.80
4411;DHT22;2218;51.408;7.208;2023-03-23T02:59:57;19.30;42.90
4411;DHT22;2218;51.408;7.208;2023-03-23T03:02:25;19.30;42.90
4411;DHT22;2218;51.408;7.208;2023-03-23T03:05:01;19.30;42.90
4411;DHT22;2218;51.408;7.208;2023-03-23T03:07:47;19.30;42.90
4411;DHT22;2218;51.408;7.208;2023-03-23T03:10:24;19.30;42.90
4411;DHT22;2218;51.408;7.208;2023-03-23T03:13:04;19.20;42.90
4411;DHT22;2218;51.408;7.208;2023-03-23T03:15:41;19.20;42.80
4411;DHT22;2218;51.408;7.208;2023-03-23T03:18:16;19.30;42.90
4411;DHT22;2218;51.408;7.208;2023-03-23T03:20:51;19.20;42.90
4411;DHT22;2218;51.408;7.208;2023-03-23T03:23:24;19.20;42.90
4411;DHT22;2218;51.408;7.208;2023-03-23T03:25:57;19.20;42.90
4411;DHT22;2218;51.408;7.208;2023-03-23T03:28:37;19.20;42.90
4411;DHT22;2218;51.408;7.208;2023-03-23T03:31:07;19.20;43.00
4411;DHT22;2218;51.408;7.208;2023-03-23T03:33:35;19.20;43.00
4411;DHT22;2218;51.408;7.208;2023-03-23T03:36:05;19.20;42.90
4411;DHT22;2218;51.408;7.208;2023-03-23T03:38:41;19.20;42.90
4411;DHT22;2218;51.408;7.208;2023-03-23T03:41:09;19.20;42.90
4411;DHT22;2218;51.408;7.208;2023-03-23T03:43:36;19.20;42.90
4411;DHT22;2218;51.408;7.208;2023-03-23T03:46:04;19.20;42.90
4411;DHT22;2218;51.408;7.208;2023-03-23T03:48:31;19.20;42.90
4411;DHT22;2218;51.408;7.208;2023-03-23T03:50:58;19.20;42.90
4411;DHT22;2218;51.408;7.208;2023-03-23T03:53:30;19.30;43.00
4411;DHT22;2218;51.408;7.208;2023-03-23T03:55:58;19.20;43.00
4411;DHT22;2218;51.408;7.208;2023-03-23T03:58:32;19.20;43.00
4411;DHT22;2218;51.408;7.208;2023-03-23T04:01:08;19.30;43.00
4411;DHT22;2218;51.408;7.208;2023-03-23T04:03:38;19.30;43.00
4411;DHT22;2218;51.408;7.208;2023-03-23T04:06:29;19.30;43.00
4411;DHT22;2218;51.408;7.208;2023-03-23T04:08:59;19.30;43.00
4411;DHT22;2218;51.408;7.208;2023-03-23T04:11:26;19.30;43.00
4411;DHT22;2218;51.408;7.208;2023-03-23T04:14:05;19.30;43.10
4411;DHT22;2218;51.408;7.208;2023-03-23T04:16:41;19.20;43.00
4411;DHT22;2218;51.408;7.208;2023-03-23T04:19:09;19.30;43.00
4411;DHT22;2218;51.408;7.208;2023-03-23T04:21:37;19.30;43.00
4411;DHT22;2218;51.408;7.208;2023-03-23T04:24:07;19.20;43.00
4411;DHT22;2218;51.408;7.208;2023-03-23T04:26:34;19.20;43.00
4411;DHT22;2218;51.408;7.208;2023-03-23T04:29:09;19.30;43.10
4411;DHT22;2218;51.408;7.208;2023-03-23T04:32:01;19.30;43.10
4411;DHT22;2218;51.408;7.208;2023-03-23T04:34:37;19.30;43.00
4411;DHT22;2218;51.408;7.208;2023-03-23T04:37:03;19.30;43.00
4411;DHT22;2218;51.408;7.208;2023-03-23T04:39:33;19.30;43.00
4411;DHT22;2218;51.408;7.208;2023-03-23T04:42:02;19.30;43.00
4411;DHT22;2218;51.408;7.208;2023-03-23T04:44:49;19.30;43.00
4411;DHT22;2218;51.408;7.208;2023-03-23T04:47:26;19.30;43.00
4411;DHT22;2218;51.408;7.208;2023-03-23T04:49:56;19.30;43.00
4411;DHT22;2218;51.408;7.208;2023-03-23T04:52:32;19.30;43.00
4411;DHT22;2218;51.408;7.208;2023-03-23T04:55:06;19.30;43.00
4411;DHT22;2218;51.408;7.208;2023-03-23T04:57:36;19.30;43.00
4411;DHT22;2218;51.408;7.208;2023-03-23T05:00:36;19.30;43.00
4411;DHT22;2218;51.408;7.208;2023-03-23T05:03:04;19.30;43.00
4411;DHT22;2218;51.408;7.208;2023-03-23T05:05:34;19.30;43.00
4411;DHT22;2218;51.408;7.208;2023-03-23T05:08:05;19.30;43.00
4411;DHT22;2218;51.408;7.208;2023-03-23T05:10:37;19.30;43.10
4411;DHT22;2218;51.408;7.208;2023-03-23T05:13:08;19.30;43.10
4411;DHT22;2218;51.408;7.208;2023-03-23T05:15:36;19.30;43.10
4411;DHT22;2218;51.408;7.208;2023-03-23T05:18:04;19.30;43.10
4411;DHT22;2218;51.408;7.208;2023-03-23T05:20:32;19.30;43.10
4411;DHT22;2218;51.408;7.208;2023-03-23T05:23:07;19.40;43.10
4411;DHT22;2218;51.408;7.208;2023-03-23T05:25:37;19.40;43.10
4411;DHT22;2218;51.408;7.208;2023-03-23T05:28:18;19.40;43.00
4411;DHT22;2218;51.408;7.208;2023-03-23T05:30:47;19.40;43.00
4411;DHT22;2218;51.408;7.208;2023-03-23T05:33:17;19.40;42.90
4411;DHT22;2218;51.408;7.208;2023-03-23T05:36:02;19.50;43.00
4411;DHT22;2218;51.408;7.208;2023-03-23T05:38:42;19.50;43.00
4411;DHT22;2218;51.408;7.208;2023-03-23T05:41:12;19.50;42.90
4411;DHT22;2218;51.408;7.208;2023-03-23T05:43:41;19.50;42.90
4411;DHT22;2218;51.408;7.208;2023-03-23T05:46:22;19.50;42.90
4411;DHT22;2218;51.408;7.208;2023-03-23T05:48:51;19.50;42.80
4411;DHT22;2218;51.408;7.208;2023-03-23T05:51:21;19.60;42.90
4411;DHT22;2218;51.408;7.208;2023-03-23T05:53:49;19.60;42.80
4411;DHT22;2218;51.408;7.208;2023-03-23T05:56:18;19.50;42.80
4411;DHT22;2218;51.408;7.208;2023-03-23T05:59:04;19.60;42.80
4411;DHT22;2218;51.408;7.208;2023-03-23T06:01:34;19.60;42.70
4411;DHT22;2218;51.408;7.208;2023-03-23T06:04:01;19.60;42.80
4411;DHT22;2218;51.408;7.208;2023-03-23T06:06:38;19.60;42.70
4411;DHT22;2218;51.408;7.208;2023-03-23T06:09:09;19.60;42.60
4411;DHT22;2218;51.408;7.208;2023-03-23T06:12:01;19.60;42.50
4411;DHT22;2218;51.408;7.208;2023-03-23T06:14:36;19.60;42.50
4411;DHT22;2218;51.408;7.208;2023-03-23T06:17:04;19.60;42.50
4411;DHT22;2218;51.408;7.208;2023-03-23T06:19:32;19.60;42.50
4411;DHT22;2218;51.408;7.208;2023-03-23T06:22:08;19.60;42.50
4411;DHT22;2218;51.408;7.208;2023-03-23T06:25:01;19.60;42.50
4411;DHT22;2218;51.408;7.208;2023-03-23T06:27:36;19.60;42.50
4411;DHT22;2218;51.408;7.208;2023-03-23T06:30:05;19.60;42.40
4411;DHT22;2218;51.408;7.208;2023-03-23T06:32:33;19.60;42.40
4411;DHT22;2218;51.408;7.208;2023-03-23T06:35:02;19.60;42.30
4411;DHT22;2218;51.408;7.208;2023-03-23T06:37:49;19.60;42.20
4411;DHT22;2218;51.408;7.208;2023-03-23T06:40:23;19.60;42.30
4411;DHT22;2218;51.408;7.208;2023-03-23T06:42:54;19.60;42.20
4411;DHT22;2218;51.408;7.208;2023-03-23T06:45:50;19.60;42.30
4411;DHT22;2218;51.408;7.208;2023-03-23T06:48:36;19.60;42.20
4411;DHT22;2218;51.408;7.208;2023-03-23T06:51:05;19.60;42.20
4411;DHT22;2218;51.408;7.208;2023-03-23T06:53:34;19.60;42.10
4411;DHT22;2218;51.408;7.208;2023-03-23T06:56:03;19.60;42.10
4411;DHT22;2218;51.408;7.208;2023-03-23T06:58:32;19.60;42.10
4411;DHT22;2218;51.408;7.208;2023-03-23T07:01:00;19.60;42.10
4411;DHT22;2218;51.408;7.208;2023-03-23T07:03:38;19.60;42.10
4411;DHT22;2218;51.408;7.208;2023-03-23T07:06:07;19.60;42.10
4411;DHT22;2218;51.408;7.208;2023-03-23T07:08:42;19.60;42.10
4411;DHT22;2218;51.408;7.208;2023-03-23T07:11:13;19.60;42.00
4411;DHT22;2218;51.408;7.208;2023-03-23T07:13:42;19.60;42.10
4411;DHT22;2218;51.408;7.208;2023-03-23T07:16:09;19.60;42.00
4411;DHT22;2218;51.408;7.208;2023-03-23T07:18:37;19.60;42.10
4411;DHT22;2218;51.408;7.208;2023-03-23T07:21:06;19.60;42.00
4411;DHT22;2218;51.408;7.208;2023-03-23T07:23:33;19.60;42.00
4411;DHT22;2218;51.408;7.208;2023-03-23T07:26:03;19.60;42.00
4411;DHT22;2218;51.408;7.208;2023-03-23T07:28:38;19.60;41.90
4411;DHT22;2218;51.408;7.208;2023-03-23T07:31:27;19.70;42.00
4411;DHT22;2218;51.408;7.208;2023-03-23T07:33:55;19.60;42.10
4411;DHT22;2218;51.408;7.208;2023-03-23T07:36:30;19.60;42.00
4411;DHT22;2218;51.408;7.208;2023-03-23T07:38:58;19.70;42.10
4411;DHT22;2218;51.408;7.208;2023-03-23T07:41:25;19.70;42.10
4411;DHT22;2218;51.408;7.208;2023-03-23T07:43:53;19.60;42.10
4411;DHT22;2218;51.408;7.208;2023-03-23T07:46:35;19.70;42.10
4411;DHT22;2218;51.408;7.208;2023-03-23T07:49:09;19.70;42.00
4411;DHT22;2218;51.408;7.208;2023-03-23T07:51:42;19.70;42.20
4411;DHT22;2218;51.408;7.208;2023-03-23T07:54:12;19.70;42.20
4411;DHT22;2218;51.408;7.208;2023-03-23T07:57:03;19.70;42.20
4411;DHT22;2218;51.408;7.208;2023-03-23T07:59:35;19.70;42.20
4411;DHT22;2218;51.408;7.208;2023-03-23T08:02:04;19.70;42.10
4411;DHT22;2218;51.408;7.208;2023-03-23T08:04:38;19.70;42.20
4411;DHT22;2218;51.408;7.208;2023-03-23T08:07:08;19.70;42.00
4411;DHT22;2218;51.408;7.208;2023-03-23T08:09:49;19.70;42.10
4411;DHT22;2218;51.408;7.208;2023-03-23T08:12:35;19.70;42.10
4411;DHT22;2218;51.408;7.208;2023-03-23T08:15:19;19.70;42.10
4411;DHT22;2218;51.408;7.208;2023-03-23T08:18:11;19.70;42.10
4411;DHT22;2218;51.408;7.208;2023-03-23T08:20:57;19.70;42.10
4411;DHT22;2218;51.408;7.208;2023-03-23T08:23:34;19.70;42.10
4411;DHT22;2218;51.408;7.208;2023-03-23T08:26:19;19.70;42.10
4411;DHT22;2218;51.408;7.208;2023-03-23T08:29:12;19.70;42.10
4411;DHT22;2218;51.408;7.208;2023-03-23T08:31:53;19.70;42.00
4411;DHT22;2218;51.408;7.208;2023-03-23T08:34:40;19.70;42.00
4411;DHT22;2218;51.408;7.208;2023-03-23T08:37:18;19.70;42.00
4411;DHT22;2218;51.408;7.208;2023-03-23T08:40:02;19.70;42.10
4411;DHT22;2218;51.408;7.208;2023-03-23T08:43:03;19.70;42.10
4411;DHT22;2218;51.408;7.208;2023-03-23T08:46:05;19.70;42.00
4411;DHT22;2218;51.408;7.208;2023-03-23T08:48:54;19.70;42.00
4411;DHT22;2218;51.408;7.208;2023-03-23T08:51:48;19.70;42.00
4411;DHT22;2218;51.408;7.208;2023-03-23T08:54:31;19.70;42.00
4411;DHT22;2218;51.408;7.208;2023-03-23T08:57:16;19.70;42.00
4411;DHT22;2218;51.408;7.208;2023-03-23T09:00:05;19.70;42.50
4411;DHT22;2218;51.408;7.208;2023-03-23T09:02:58;19.70;42.00
4411;DHT22;2218;51.408;7.208;2023-03-23T09:05:34;19.70;42.00
4411;DHT22;2218;51.408;7.208;2023-03-23T09:08:24;19.70;42.00
4411;DHT22;2218;51.408;7.208;2023-03-23T09:10:51;19.70;42.00
4411;DHT22;2218;51.408;7.208;2023-03-23T09:13:18;19.80;42.10
4411;DHT22;2218;51.408;7.208;2023-03-23T09:15:48;19.80;42.10
4411;DHT22;2218;51.408;7.208;2023-03-23T09:18:15;19.70;42.00
4411;DHT22;2218;51.408;7.208;2023-03-23T09:20:42;19.80;42.00
4411;DHT22;2218;51.408;7.208;2023-03-23T09:23:10;19.80;42.00
4411;DHT22;2218;51.408;7.208;2023-03-23T09:25:40;19.80;42.00
4411;DHT22;2218;51.408;7.208;2023-03-23T09:28:07;19.80;42.00
4411;DHT22;2218;51.408;7.208;2023-03-23T09:30:35;19.80;42.00
4411;DHT22;2218;51.408;7.208;2023-03-23T09:33:03;19.80;41.90
4411;DHT22;2218;51.408;7.208;2023-03-23T09:35:32;19.80;41.90
4411;DHT22;2218;51.408;7.208;2023-03-23T09:38:00;19.80;41.90
4411;DHT22;2218;51.408;7.208;2023-03-23T09:40:33;19.80;42.00
4411;DHT22;2218;51.408;7.208;2023-03-23T09:43:40;19.80;41.90
4411;DHT22;2218;51.408;7.208;2023-03-23T09:46:30;19.80;42.00
4411;DHT22;2218;51.408;7.208;2023-03-23T09:49:11;19.80;41.90
4411;DHT22;2218;51.408;7.208;2023-03-23T09:51:44;19.80;41.90
4411;DHT22;2218;51.408;7.208;2023-03-23T09:54:20;19.80;41.90
4411;DHT22;2218;51.408;7.208;2023-03-23T09:56:50;19.80;41.90
4411;DHT22;2218;51.408;7.208;2023-03-23T09:59:26;19.80;41.90
4411;DHT22;2218;51.408;7.208;2023-03-23T10:02:01;19.80;41.90
4411;DHT22;2218;51.408;7.208;2023-03-23T10:04:41;19.80;41.90
4411;DHT22;2218;51.408;7.208;2023-03-23T10:07:13;19.80;41.90
4411;DHT22;2218;51.408;7.208;2023-03-23T10:09:43;19.80;41.80
4411;DHT22;2218;51.408;7.208;2023-03-23T10:12:19;19.80;41.90
4411;DHT22;2218;51.408;7.208;2023-03-23T10:15:09;19.80;41.80
4411;DHT22;2218;51.408;7.208;2023-03-23T10:17:45;19.80;41.80
4411;DHT22;2218;51.408;7.208;2023-03-23T10:20:34;19.80;41.80
4411;DHT22;2218;51.408;7.208;2023-03-23T10:23:20;19.80;41.80
4411;DHT22;2218;51.408;7.208;2023-03-23T10:26:06;19.80;41.80
4411;DHT22;2218;51.408;7.208;2023-03-23T10:28:42;19.80;41.80
4411;DHT22;2218;51.408;7.208;2023-03-23T10:31:15;19.80;41.80
4411;DHT22;2218;51.408;7.208;2023-03-23T10:33:48;19.80;41.70
4411;DHT22;2218;51.408;7.208;2023-03-23T10:36:21;19.80;41.70
4411;DHT22;2218;51.408;7.208;2023-03-23T10:38:56;19.90;41.80
4411;DHT22;2218;51.408;7.208;2023-03-23T10:41:27;19.80;41.70
4411;DHT22;2218;51.408;7.208;2023-03-23T10:43:54;19.80;41.70
4411;DHT22;2218;51.408;7.208;2023-03-23T10:46:28;19.80;41.70
4411;DHT22;2218;51.408;7.208;2023-03-23T10:49:06;19.80;41.60
4411;DHT22;2218;51.408;7.208;2023-03-23T10:51:42;19.80;41.70
4411;DHT22;2218;51.408;7.208;2023-03-23T10:54:12;19.80;41.70
4411;DHT22;2218;51.408;7.208;2023-03-23T10:56:41;19.80;41.70
4411;DHT22;2218;51.408;7.208;2023-03-23T10:59:14;19.80;41.70
4411;DHT22;2218;51.408;7.208;2023-03-23T11:01:55;19.90;41.70
4411;DHT22;2218;51.408;7.208;2023-03-23T11:04:25;19.80;41.70
4411;DHT22;2218;51.408;7.208;2023-03-23T11:06:57;19.80;41.60
4411;DHT22;2218;51.408;7.208;2023-03-23T11:09:38;19.80;41.70
4411;DHT22;2218;51.408;7.208;2023-03-23T11:12:16;19.80;41.70
4411;DHT22;2218;51.408;7.208;2023-03-23T11:14:44;19.90;41.90
4411;DHT22;2218;51.408;7.208;2023-03-23T11:17:22;19.90;41.90
4411;DHT22;2218;51.408;7.208;2023-03-23T11:19:51;19.80;41.70
4411;DHT22;2218;51.408;7.208;2023-03-23T11:22:25;19.90;41.80
4411;DHT22;2218;51.408;7.208;2023-03-23T11:24:55;19.80;41.80
4411;DHT22;2218;51.408;7.208;2023-03-23T11:27:27;19.80;41.80
4411;DHT22;2218;51.408;7.208;2023-03-23T11:29:58;19.90;42.00
4411;DHT22;2218;51.408;7.208;2023-03-23T11:32:30;19.90;41.90
4411;DHT22;2218;51.408;7.208;2023-03-23T11:34:59;19.80;41.90
4411;DHT22;2218;51.408;7.208;2023-03-23T11:37:32;19.90;42.10
4411;DHT22;2218;51.408;7.208;2023-03-23T11:40:15;19.90;42.10
4411;DHT22;2218;51.408;7.208;2023-03-23T11:42:46;19.90;42.10
4411;DHT22;2218;51.408;7.208;2023-03-23T11:45:19;19.90;42.10
4411;DHT22;2218;51.408;7.208;2023-03-23T11:47:59;19.80;42.10
4411;DHT22;2218;51.408;7.208;2023-03-23T11:50:46;19.80;42.10
4411;DHT22;2218;51.408;7.208;2023-03-23T11:53:23;19.80;42.10
4411;DHT22;2218;51.408;7.208;2023-03-23T11:56:05;19.90;42.10
4411;DHT22;2218;51.408;7.208;2023-03-23T11:58:38;19.90;42.10
4411;DHT22;2218;51.408;7.208;2023-03-23T12:01:13;19.80;42.00
4411;DHT22;2218;51.408;7.208;2023-03-23T12:04:03;19.90;42.20
4411;DHT22;2218;51.408;7.208;2023-03-23T12:06:51;19.80;42.20
4411;DHT22;2218;51.408;7.208;2023-03-23T12:09:36;19.90;42.30
4411;DHT22;2218;51.408;7.208;2023-03-23T12:12:16;19.90;42.30
4411;DHT22;2218;51.408;7.208;2023-03-23T12:14:57;19.90;42.30
4411;DHT22;2218;51.408;7.208;2023-03-23T12:17:37;19.90;42.30
4411;DHT22;2218;51.408;7.208;2023-03-23T12:20:25;19.90;42.40
4411;DHT22;2218;51.408;7.208;2023-03-23T12:23:08;19.90;42.40
4411;DHT22;2218;51.408;7.208;2023-03-23T12:26:08;19.90;42.40
4411;DHT22;2218;51.408;7.208;2023-03-23T12:28:53;19.90;42.40
4411;DHT22;2218;51.408;7.208;2023-03-23T12:31:36;19.90;42.40
4411;DHT22;2218;51.408;7.208;2023-03-23T12:34:17;19.90;42.30
4411;DHT22;2218;51.408;7.208;2023-03-23T12:37:14;19.90;42.30
4411;DHT22;2218;51.408;7.208;2023-03-23T12:40:10;19.90;42.30
4411;DHT22;2218;51.408;7.208;2023-03-23T12:42:54;19.90;42.30
4411;DHT22;2218;51.408;7.208;2023-03-23T12:45:41;19.80;42.30
4411;DHT22;2218;51.408;7.208;2023-03-23T12:48:23;19.90;42.40
4411;DHT22;2218;51.408;7.208;2023-03-23T12:51:07;19.90;42.40
4411;DHT22;2218;51.408;7.208;2023-03-23T12:53:46;19.90;42.40
4411;DHT22;2218;51.408;7.208;2023-03-23T12:56:28;19.90;42.40
4411;DHT22;2218;51.408;7.208;2023-03-23T12:59:06;19.90;42.40
4411;DHT22;2218;51.408;7.208;2023-03-23T13:01:40;19.90;42.50
4411;DHT22;2218;51.408;7.208;2023-03-23T13:04:13;19.90;42.60
4411;DHT22;2218;51.408;7.208;2023-03-23T13:06:45;19.90;42.60
4411;DHT22;2218;51.408;7.208;2023-03-23T13:09:19;19.90;42.60
4411;DHT22;2218;51.408;7.208;2023-03-23T13:11:50;19.90;42.60
4411;DHT22;2218;51.408;7.208;2023-03-23T13:14:27;19.90;42.60
4411;DHT22;2218;51.408;7.208;2023-03-23T13:17:16;19.90;42.60
4411;DHT22;2218;51.408;7.208;2023-03-23T13:23:09;19.90;42.70
4411;DHT22;2218;51.408;7.208;2023-03-23T13:25:48;19.90;42.80
4411;DHT22;2218;51.408;7.208;2023-03-23T13:28:19;19.90;42.70
4411;DHT22;2218;51.408;7.208;2023-03-23T13:30:56;19.90;42.80
4411;DHT22;2218;51.408;7.208;2023-03-23T13:33:25;19.90;42.80
4411;DHT22;2218;51.408;7.208;2023-03-23T13:36:01;19.90;42.80
4411;DHT22;2218;51.408;7.208;2023-03-23T13:38:32;19.90;42.80
4411;DHT22;2218;51.408;7.208;2023-03-23T13:41:08;19.90;42.80
4411;DHT22;2218;51.408;7.208;2023-03-23T13:43:40;19.90;42.80
4411;DHT22;2218;51.408;7.208;2023-03-23T13:46:12;19.90;42.80
4411;DHT22;2218;51.408;7.208;2023-03-23T13:49:04;19.90;42.80
4411;DHT22;2218;51.408;7.208;2023-03-23T13:51:58;19.90;42.80
4411;DHT22;2218;51.408;7.208;2023-03-23T13:54:39;19.90;42.90
4411;DHT22;2218;51.408;7.208;2023-03-23T13:57:34;19.90;42.90
4411;DHT22;2218;51.408;7.208;2023-03-23T14:00:33;19.90;43.00
4411;DHT22;2218;51.408;7.208;2023-03-23T14:03:12;19.90;42.90
4411;DHT22;2218;51.408;7.208;2023-03-23T14:05:43;19.90;43.00
4411;DHT22;2218;51.408;7.208;2023-03-23T14:08:14;19.90;43.00
4411;DHT22;2218;51.408;7.208;2023-03-23T14:10:52;19.90;43.00
4411;DHT22;2218;51.408;7.208;2023-03-23T14:13:29;19.90;43.00
4411;DHT22;2218;51.408;7.208;2023-03-23T14:16:00;19.90;43.10
4411;DHT22;2218;51.408;7.208;2023-03-23T14:18:34;19.90;43.10
4411;DHT22;2218;51.408;7.208;2023-03-23T14:21:04;19.90;43.10
4411;DHT22;2218;51.408;7.208;2023-03-23T14:23:33;19.90;43.10
4411;DHT22;2218;51.408;7.208;2023-03-23T14:26:03;19.90;43.20
4411;DHT22;2218;51.408;7.208;2023-03-23T14:28:42;19.90;43.10
4411;DHT22;2218;51.408;7.208;2023-03-23T14:31:18;19.90;43.20
4411;DHT22;2218;51.408;7.208;2023-03-23T14:33:48;20.00;43.30
4411;DHT22;2218;51.408;7.208;2023-03-23T14:36:20;20.00;43.30
4411;DHT22;2218;51.408;7.208;2023-03-23T14:38:55;19.90;43.20
4411;DHT22;2218;51.408;7.208;2023-03-23T14:41:29;20.00;43.30
4411;DHT22;2218;51.408;7.208;2023-03-23T14:44:00;19.90;43.30
4411;DHT22;2218;51.408;7.208;2023-03-23T14:46:29;19.90;43.30
4411;DHT22;2218;51.408;7.208;2023-03-23T14:49:00;20.00;43.40
4411;DHT22;2218;51.408;7.208;2023-03-23T14:51:28;19.90;43.40
4411;DHT22;2218;51.408;7.208;2023-03-23T14:53:57;19.90;43.30
4411;DHT22;2218;51.408;7.208;2023-03-23T14:56:33;19.90;43.40
4411;DHT22;2218;51.408;7.208;2023-03-23T14:59:05;20.00;43.40
4411;DHT22;2218;51.408;7.208;2023-03-23T15:01:37;20.00;43.50
4411;DHT22;2218;51.408;7.208;2023-03-23T15:04:09;20.00;43.50
4411;DHT22;2218;51.408;7.208;2023-03-23T15:06:40;20.00;43.60
4411;DHT22;2218;51.408;7.208;2023-03-23T15:09:13;20.00;43.60
4411;DHT22;2218;51.408;7.208;2023-03-23T15:11:52;19.90;43.50
4411;DHT22;2218;51.408;7.208;2023-03-23T15:14:27;20.00;43.60
4411;DHT22;2218;51.408;7.208;2023-03-23T15:16:57;20.00;43.70
4411;DHT22;2218;51.408;7.208;2023-03-23T15:19:31;20.00;43.80
4411;DHT22;2218;51.408;7.208;2023-03-23T15:22:05;20.00;43.80
4411;DHT22;2218;51.408;7.208;2023-03-23T15:24:41;20.00;43.80
4411;DHT22;2218;51.408;7.208;2023-03-23T15:27:13;20.00;43.80
4411;DHT22;2218;51.408;7.208;2023-03-23T15:29:53;20.00;43.80
4411;DHT22;2218;51.408;7.208;2023-03-23T15:32:27;20.00;43.90
4411;DHT22;2218;51.408;7.208;2023-03-23T15:34:57;20.00;43.90
4411;DHT22;2218;51.408;7.208;2023-03-23T15:37:30;20.00;43.90
4411;DHT22;2218;51.408;7.208;2023-03-23T15:39:59;20.00;43.90
4411;DHT22;2218;51.408;7.208;2023-03-23T15:42:30;20.00;43.90
4411;DHT22;2218;51.408;7.208;2023-03-23T15:45:12;20.00;43.90
4411;DHT22;2218;51.408;7.208;2023-03-23T15:47:48;20.00;44.00
4411;DHT22;2218;51.408;7.208;2023-03-23T15:50:17;20.00;44.00
4411;DHT22;2218;51.408;7.208;2023-03-23T15:52:46;20.00;44.00
4411;DHT22;2218;51.408;7.208;2023-03-23T15:55:20;20.00;44.00
4411;DHT22;2218;51.408;7.208;2023-03-23T15:57:49;20.00;44.00
4411;DHT22;2218;51.408;7.208;2023-03-23T16:00:19;20.00;44.00
4411;DHT22;2218;51.408;7.208;2023-03-23T16:02:51;20.00;44.00
4411;DHT22;2218;51.408;7.208;2023-03-23T16:05:21;20.00;44.10
4411;DHT22;2218;51.408;7.208;2023-03-23T16:07:49;20.00;44.10
4411;DHT22;2218;51.408;7.208;2023-03-23T16:10:19;20.00;44.10
4411;DHT22;2218;51.408;7.208;2023-03-23T16:12:48;20.00;44.10
4411;DHT22;2218;51.408;7.208;2023-03-23T16:15:17;20.00;44.10
4411;DHT22;2218;51.408;7.208;2023-03-23T16:17:45;20.00;44.10
4411;DHT22;2218;51.408;7.208;2023-03-23T16:20:13;20.00;44.10
4411;DHT22;2218;51.408;7.208;2023-03-23T16:22:42;20.00;44.10
4411;DHT22;2218;51.408;7.208;2023-03-23T16:25:09;20.00;44.10
4411;DHT22;2218;51.408;7.208;2023-03-23T16:27:37;20.00;44.10
4411;DHT22;2218;51.408;7.208;2023-03-23T16:30:12;20.00;44.70
4411;DHT22;2218;51.408;7.208;2023-03-23T16:32:42;20.00;44.20
4411;DHT22;2218;51.408;7.208;2023-03-23T16:35:10;20.00;44.10
4411;DHT22;2218;51.408;7.208;2023-03-23T16:37:37;20.00;44.10
4411;DHT22;2218;51.408;7.208;2023-03-23T16:40:05;20.00;44.10
4411;DHT22;2218;51.408;7.208;2023-03-23T16:42:34;20.00;44.70
4411;DHT22;2218;51.408;7.208;2023-03-23T16:45:01;20.00;44.10
4411;DHT22;2218;51.408;7.208;2023-03-23T16:47:28;20.00;44.30
4411;DHT22;2218;51.408;7.208;2023-03-23T16:49:58;20.00;44.20
4411;DHT22;2218;51.408;7.208;2023-03-23T16:52:25;20.00;44.10
4411;DHT22;2218;51.408;7.208;2023-03-23T16:54:52;20.00;44.20